createdAt,value
2023-02-27T00:00:19.296Z,5.60
2023-02-27T00:03:07.937Z,5.70
2023-02-27T00:05:36.624Z,5.80
2023-02-27T00:08:05.266Z,5.50
2023-02-27T00:10:34.098Z,5.90
2023-02-27T00:13:03.193Z,6.70
2023-02-27T00:15:32.489Z,6.30
2023-02-27T00:18:01.079Z,5.80
2023-02-27T00:20:30.481Z,6.40
2023-02-27T00:22:58.870Z,6.50
2023-02-27T00:25:27.444Z,6.50
2023-02-27T00:27:57.358Z,6.70
2023-02-27T00:30:26.809Z,5.90
2023-02-27T00:32:55.757Z,6.70
2023-02-27T00:35:24.848Z,6.10
2023-02-27T00:37:53.842Z,5.70
2023-02-27T00:40:25.707Z,5.50
2023-02-27T00:45:23.080Z,4.80
2023-02-27T00:47:51.944Z,5.80
2023-02-27T00:50:20.660Z,5.30
2023-02-27T00:52:49.135Z,5.30
2023-02-27T00:55:17.920Z,5.40
2023-02-27T00:57:46.731Z,6.00
2023-02-27T01:00:15.647Z,6.10
2023-02-27T01:02:44.824Z,7.70
2023-02-27T01:05:14.821Z,8.50
2023-02-27T01:07:43.304Z,5.80
2023-02-27T01:10:13.604Z,5.90
2023-02-27T01:12:42.827Z,6.30
2023-02-27T01:15:12.645Z,6.30
2023-02-27T01:17:41.431Z,5.30
2023-02-27T01:20:13.007Z,6.00
2023-02-27T01:22:42.197Z,6.20
2023-02-27T01:25:11.489Z,5.50
2023-02-27T01:27:41.402Z,5.20
2023-02-27T01:30:11.984Z,5.40
2023-02-27T01:32:40.976Z,5.90
2023-02-27T01:35:10.126Z,5.50
2023-02-27T01:37:38.562Z,4.50
2023-02-27T01:40:08.698Z,4.80
2023-02-27T01:42:37.922Z,4.50
2023-02-27T01:45:13.265Z,4.60
2023-02-27T01:47:47.578Z,5.10
2023-02-27T01:50:18.529Z,5.20
2023-02-27T01:52:54.746Z,5.00
2023-02-27T01:55:26.373Z,5.10
2023-02-27T01:57:56.323Z,5.20
2023-02-27T02:00:25.859Z,4.90
2023-02-27T02:03:20.820Z,4.70
2023-02-27T02:05:52.274Z,4.80
2023-02-27T02:08:23.661Z,5.20
2023-02-27T02:10:54.847Z,4.70
2023-02-27T02:13:23.609Z,4.40
2023-02-27T02:16:15.530Z,4.70
2023-02-27T02:18:59.468Z,4.50
2023-02-27T02:21:47.171Z,4.50
2023-02-27T02:24:40.670Z,4.50
2023-02-27T02:27:19.507Z,4.60
2023-02-27T02:30:09.787Z,4.70
2023-02-27T02:33:02.024Z,4.60
2023-02-27T02:35:47.617Z,4.90
2023-02-27T02:38:50.280Z,4.70
2023-02-27T02:41:26.652Z,5.00
2023-02-27T02:44:10.090Z,4.80
2023-02-27T02:47:00.897Z,4.80
2023-02-27T02:49:41.269Z,5.00
2023-02-27T02:52:52.032Z,4.70
2023-02-27T02:55:33.425Z,4.40
2023-02-27T02:58:27.904Z,4.50
2023-02-27T03:01:03.783Z,4.40
2023-02-27T03:03:37.363Z,4.00
2023-02-27T03:06:28.244Z,4.40
2023-02-27T03:09:02.588Z,3.90
2023-02-27T03:11:36.717Z,4.90
2023-02-27T03:14:16.531Z,3.90
2023-02-27T03:16:50.729Z,4.90
2023-02-27T03:19:26.605Z,4.30
2023-02-27T03:22:11.927Z,3.80
2023-02-27T03:24:47.425Z,4.50
2023-02-27T03:27:19.177Z,4.60
2023-02-27T03:30:10.544Z,3.60
2023-02-27T03:32:48.721Z,3.70
2023-02-27T03:35:18.441Z,4.60
2023-02-27T03:37:59.705Z,4.10
2023-02-27T03:40:38.299Z,3.40
2023-02-27T03:43:39.142Z,3.90
2023-02-27T03:48:50.477Z,3.90
2023-02-27T03:51:22.826Z,4.30
2023-02-27T03:54:05.139Z,4.10
2023-02-27T03:57:00.977Z,4.00
2023-02-27T03:59:31.380Z,4.70
2023-02-27T04:02:02.585Z,4.10
2023-02-27T04:04:33.078Z,4.30
2023-02-27T04:08:16.613Z,4.00
2023-02-27T04:11:04.248Z,3.60
2023-02-27T04:13:38.971Z,4.00
2023-02-27T04:16:29.234Z,4.00
2023-02-27T04:19:07.066Z,3.90
2023-02-27T04:22:01.045Z,4.00
2023-02-27T04:24:44.990Z,4.70
2023-02-27T04:27:32.792Z,4.40
2023-02-27T04:30:46.702Z,4.00
2023-02-27T04:33:34.274Z,4.40
2023-02-27T04:36:13.020Z,4.30
2023-02-27T04:38:52.057Z,4.40
2023-02-27T04:41:27.618Z,4.20
2023-02-27T04:43:57.884Z,4.20
2023-02-27T04:46:29.445Z,4.70
2023-02-27T04:49:36.260Z,5.10
2023-02-27T04:52:14.263Z,4.60
2023-02-27T04:54:58.723Z,4.30
2023-02-27T04:57:48.313Z,5.00
2023-02-27T05:00:21.455Z,4.40
2023-02-27T05:02:56.293Z,4.60
2023-02-27T05:05:29.074Z,4.00
2023-02-27T05:08:04.210Z,4.90
2023-02-27T05:10:51.779Z,4.50
2023-02-27T05:13:29.070Z,4.70
2023-02-27T05:16:05.392Z,8.00
2023-02-27T05:18:34.416Z,5.00
2023-02-27T05:21:25.113Z,5.20
2023-02-27T05:24:20.225Z,4.60
2023-02-27T05:27:19.284Z,4.00
2023-02-27T05:29:50.775Z,4.10
2023-02-27T05:32:23.249Z,4.60
2023-02-27T05:35:01.565Z,4.20
2023-02-27T05:37:39.199Z,4.40
2023-02-27T05:40:11.285Z,4.00
2023-02-27T05:45:19.839Z,4.50
2023-02-27T05:48:27.223Z,4.00
2023-02-27T05:50:58.085Z,4.50
2023-02-27T05:53:32.396Z,5.30
2023-02-27T05:56:05.802Z,4.60
2023-02-27T05:59:01.320Z,4.70
2023-02-27T06:01:30.242Z,4.00
2023-02-27T06:03:59.129Z,4.80
2023-02-27T06:06:30.656Z,4.20
2023-02-27T06:08:59.445Z,4.20
2023-02-27T06:11:28.133Z,4.30
2023-02-27T06:13:56.719Z,5.80
2023-02-27T06:16:25.823Z,4.40
2023-02-27T06:18:55.650Z,4.40
2023-02-27T06:21:24.650Z,4.20
2023-02-27T06:23:53.267Z,4.30
2023-02-27T06:26:21.689Z,4.20
2023-02-27T06:28:50.857Z,4.00
2023-02-27T06:31:19.468Z,5.10
2023-02-27T06:33:48.056Z,5.00
2023-02-27T06:36:16.940Z,4.60
2023-02-27T06:38:45.737Z,4.60
2023-02-27T06:41:14.206Z,4.10
2023-02-27T06:43:42.998Z,4.40
2023-02-27T06:46:11.915Z,4.50
2023-02-27T06:48:40.573Z,5.10
2023-02-27T06:51:09.361Z,5.20
2023-02-27T06:53:38.372Z,4.60
2023-02-27T06:56:07.354Z,4.60
2023-02-27T06:58:35.937Z,5.40
2023-02-27T07:01:04.833Z,5.00
2023-02-27T07:03:33.634Z,4.40
2023-02-27T07:06:03.325Z,4.60
2023-02-27T07:08:32.318Z,4.80
2023-02-27T07:11:01.547Z,4.50
2023-02-27T07:13:30.509Z,4.90
2023-02-27T07:15:59.190Z,5.50
2023-02-27T07:18:27.883Z,4.70
2023-02-27T07:20:56.776Z,4.60
2023-02-27T07:23:25.459Z,4.30
2023-02-27T07:25:54.051Z,4.40
2023-02-27T07:28:23.094Z,4.70
2023-02-27T07:30:54.907Z,4.20
2023-02-27T07:33:24.199Z,4.20
2023-02-27T07:35:53.950Z,4.60
2023-02-27T07:38:24.343Z,4.70
2023-02-27T07:40:56.201Z,4.60
2023-02-27T07:45:54.053Z,5.20
2023-02-27T07:48:22.614Z,4.40
2023-02-27T07:50:51.684Z,4.60
2023-02-27T07:53:20.353Z,4.10
2023-02-27T07:55:49.045Z,4.50
2023-02-27T07:58:18.137Z,4.40
2023-02-27T08:00:46.824Z,4.80
2023-02-27T08:03:15.715Z,4.70
2023-02-27T08:05:44.464Z,4.30
2023-02-27T08:08:12.985Z,5.00
2023-02-27T08:10:41.980Z,6.00
2023-02-27T08:13:11.083Z,7.60
2023-02-27T08:15:39.560Z,5.00
2023-02-27T08:18:09.251Z,6.60
2023-02-27T08:20:38.177Z,7.30
2023-02-27T08:23:07.265Z,5.90
2023-02-27T08:25:36.367Z,8.80
2023-02-27T08:28:05.128Z,4.70
2023-02-27T08:30:33.832Z,5.20
2023-02-27T08:33:04.053Z,6.40
2023-02-27T08:35:32.910Z,6.60
2023-02-27T08:38:01.830Z,7.40
2023-02-27T08:40:30.517Z,4.40
2023-02-27T08:42:59.136Z,4.20
2023-02-27T08:45:28.010Z,5.50
2023-02-27T08:47:56.679Z,6.70
2023-02-27T08:50:25.469Z,5.30
2023-02-27T08:52:54.362Z,5.60
2023-02-27T08:55:23.354Z,5.60
2023-02-27T08:57:51.943Z,6.10
2023-02-27T09:00:20.976Z,4.70
2023-02-27T09:02:49.829Z,4.00
2023-02-27T09:05:18.716Z,4.20
2023-02-27T09:07:47.199Z,4.20
2023-02-27T09:10:16.172Z,4.10
2023-02-27T09:12:45.188Z,3.70
2023-02-27T09:15:13.672Z,3.70
2023-02-27T09:17:42.587Z,4.20
2023-02-27T09:20:12.586Z,3.80
2023-02-27T09:22:41.167Z,3.70
2023-02-27T09:25:10.540Z,3.40
2023-02-27T09:27:39.467Z,3.20
2023-02-27T09:30:09.885Z,3.30
2023-02-27T09:32:38.633Z,3.40
2023-02-27T09:35:09.558Z,3.80
2023-02-27T09:37:38.521Z,3.70
2023-02-27T09:40:08.330Z,3.40
2023-02-27T09:42:45.679Z,3.00
2023-02-27T09:45:24.642Z,2.90
2023-02-27T09:47:58.752Z,3.20
2023-02-27T09:50:39.699Z,3.40
2023-02-27T09:53:14.441Z,4.70
2023-02-27T09:55:45.967Z,3.70
2023-02-27T09:58:23.811Z,3.90
2023-02-27T10:01:09.707Z,4.80
2023-02-27T10:03:47.604Z,4.00
2023-02-27T10:06:27.444Z,3.90
2023-02-27T10:09:12.520Z,3.90
2023-02-27T10:12:18.995Z,4.60
2023-02-27T10:15:13.185Z,4.60
2023-02-27T10:17:56.508Z,4.50
2023-02-27T10:20:32.503Z,4.40
2023-02-27T10:23:06.922Z,4.30
2023-02-27T10:25:45.629Z,3.90
2023-02-27T10:28:22.779Z,4.20
2023-02-27T10:30:56.118Z,4.40
2023-02-27T10:33:28.526Z,4.20
2023-02-27T10:35:58.153Z,4.70
2023-02-27T10:38:41.585Z,4.70
2023-02-27T10:41:13.849Z,3.90
2023-02-27T10:43:43.291Z,4.20
2023-02-27T10:46:19.708Z,4.10
2023-02-27T10:48:48.746Z,4.00
2023-02-27T10:51:28.334Z,4.20
2023-02-27T10:54:22.166Z,4.40
2023-02-27T10:57:30.593Z,3.80
2023-02-27T11:00:07.464Z,4.20
2023-02-27T11:02:42.191Z,4.50
2023-02-27T11:05:24.666Z,3.50
2023-02-27T11:07:54.784Z,5.60
2023-02-27T11:10:27.947Z,4.60
2023-02-27T11:13:01.514Z,5.00
2023-02-27T11:15:38.101Z,4.70
2023-02-27T11:18:21.007Z,4.50
2023-02-27T11:20:51.203Z,4.80
2023-02-27T11:23:23.479Z,4.40
2023-02-27T11:26:09.155Z,4.60
2023-02-27T11:28:37.774Z,4.70
2023-02-27T11:31:21.501Z,4.50
2023-02-27T11:33:56.324Z,4.70
2023-02-27T11:36:46.640Z,4.50
2023-02-27T11:39:27.620Z,4.30
2023-02-27T11:41:59.654Z,5.10
2023-02-27T11:44:49.921Z,4.70
2023-02-27T11:47:27.848Z,4.80
2023-02-27T11:50:05.394Z,4.80
2023-02-27T11:52:45.158Z,4.80
2023-02-27T11:55:18.517Z,5.50
2023-02-27T11:57:51.816Z,4.80
2023-02-27T12:00:26.585Z,4.70
2023-02-27T12:03:06.338Z,4.80
2023-02-27T12:05:51.561Z,5.70
2023-02-27T12:08:36.290Z,5.90
2023-02-27T12:11:22.521Z,4.70
2023-02-27T12:14:05.958Z,5.00
2023-02-27T12:16:54.315Z,4.80
2023-02-27T12:19:27.092Z,7.30
2023-02-27T12:22:04.579Z,5.30
2023-02-27T12:24:42.485Z,4.90
2023-02-27T12:27:19.565Z,5.00
2023-02-27T12:29:56.544Z,4.80
2023-02-27T12:32:32.223Z,4.30
2023-02-27T12:35:26.622Z,5.20
2023-02-27T12:37:56.990Z,5.20
2023-02-27T12:40:38.908Z,5.20
2023-02-27T12:43:28.381Z,5.60
2023-02-27T12:46:06.327Z,4.80
2023-02-27T12:48:37.834Z,5.10
2023-02-27T12:51:17.034Z,6.70
2023-02-27T12:54:08.393Z,4.30
2023-02-27T12:56:51.510Z,5.50
2023-02-27T12:59:40.582Z,4.70
2023-02-27T13:02:24.726Z,4.50
2023-02-27T13:05:34.097Z,4.60
2023-02-27T13:08:12.045Z,4.90
2023-02-27T13:10:58.890Z,4.10
2023-02-27T13:13:40.484Z,4.30
2023-02-27T13:16:29.008Z,3.70
2023-02-27T13:19:15.952Z,3.80
2023-02-27T13:21:56.133Z,4.20
2023-02-27T13:24:31.459Z,4.80
2023-02-27T13:27:19.692Z,4.80
2023-02-27T13:30:13.371Z,4.90
2023-02-27T13:32:45.899Z,5.80
2023-02-27T13:35:28.373Z,5.70
2023-02-27T13:38:02.677Z,4.90
2023-02-27T13:40:42.007Z,4.00
2023-02-27T13:43:51.413Z,3.90
2023-02-27T13:46:25.707Z,5.10
2023-02-27T13:49:06.228Z,4.30
2023-02-27T13:51:41.574Z,3.70
2023-02-27T13:54:16.433Z,4.20
2023-02-27T13:56:48.355Z,3.80
2023-02-27T13:59:37.338Z,3.70
2023-02-27T14:02:13.203Z,3.40
2023-02-27T14:04:49.876Z,3.30
2023-02-27T14:07:25.815Z,3.30
2023-02-27T14:10:04.039Z,3.40
2023-02-27T14:12:45.766Z,4.00
2023-02-27T14:15:17.882Z,4.00
2023-02-27T14:17:50.997Z,4.20
2023-02-27T14:20:24.578Z,3.90
2023-02-27T14:23:15.735Z,5.30
2023-02-27T14:25:52.908Z,6.70
2023-02-27T14:28:34.471Z,5.00
2023-02-27T14:31:06.495Z,4.90
2023-02-27T14:33:45.723Z,3.80
2023-02-27T14:36:20.798Z,5.30
2023-02-27T14:38:52.355Z,10.10
2023-02-27T14:41:49.674Z,5.60
2023-02-27T14:44:24.067Z,5.80
2023-02-27T14:46:54.890Z,5.70
2023-02-27T14:49:29.988Z,5.30
2023-02-27T14:52:18.345Z,6.60
2023-02-27T14:54:48.719Z,3.90
2023-02-27T14:57:27.615Z,3.90
2023-02-27T14:59:56.778Z,4.20
2023-02-27T15:02:33.999Z,4.20
2023-02-27T15:05:02.961Z,4.20
2023-02-27T15:07:34.759Z,5.60
2023-02-27T15:10:08.659Z,5.30
2023-02-27T15:12:39.624Z,5.80
2023-02-27T15:15:10.910Z,6.10
2023-02-27T15:17:46.333Z,5.00
2023-02-27T15:20:27.760Z,4.60
2023-02-27T15:22:58.105Z,5.20
2023-02-27T15:25:38.772Z,5.60
2023-02-27T15:28:31.406Z,6.30
2023-02-27T15:31:00.443Z,6.70
2023-02-27T15:33:32.377Z,5.90
2023-02-27T15:38:36.456Z,4.70
2023-02-27T15:41:05.815Z,5.60
2023-02-27T15:43:34.669Z,6.40
2023-02-27T15:46:03.965Z,8.30
2023-02-27T15:48:33.405Z,4.90
2023-02-27T15:51:04.530Z,4.40
2023-02-27T15:53:34.297Z,10.20
2023-02-27T15:56:09.853Z,8.90
2023-02-27T15:58:54.721Z,7.00
2023-02-27T16:01:27.246Z,5.60
2023-02-27T16:03:59.616Z,5.70
2023-02-27T16:06:32.617Z,4.70
2023-02-27T16:09:07.875Z,6.20
2023-02-27T16:11:38.160Z,7.00
2023-02-27T16:14:08.802Z,6.30
2023-02-27T16:16:39.199Z,6.50
2023-02-27T16:19:29.632Z,6.30
2023-02-27T16:22:04.945Z,5.10
2023-02-27T16:24:34.481Z,7.40
2023-02-27T16:27:03.360Z,5.90
2023-02-27T16:29:32.263Z,4.70
2023-02-27T16:32:01.230Z,6.30
2023-02-27T16:34:45.948Z,6.00
2023-02-27T16:37:35.390Z,7.60
2023-02-27T16:40:14.657Z,9.50
2023-02-27T16:42:44.234Z,4.80
2023-02-27T16:45:18.655Z,3.50
2023-02-27T16:47:49.872Z,3.20
2023-02-27T16:50:43.367Z,2.70
2023-02-27T16:53:12.037Z,3.00
2023-02-27T16:55:43.813Z,3.50
2023-02-27T16:58:16.569Z,4.10
2023-02-27T17:00:45.351Z,3.50
2023-02-27T17:03:14.803Z,4.10
2023-02-27T17:05:43.800Z,4.30
2023-02-27T17:08:13.187Z,3.80
2023-02-27T17:10:41.733Z,4.60
2023-02-27T17:13:10.355Z,6.20
2023-02-27T17:15:39.455Z,6.10
2023-02-27T17:18:09.402Z,5.20
2023-02-27T17:20:38.565Z,5.90
2023-02-27T17:23:12.512Z,10.20
2023-02-27T17:25:43.119Z,7.60
2023-02-27T17:28:12.102Z,7.20
2023-02-27T17:30:41.588Z,8.10
2023-02-27T17:33:10.328Z,7.70
2023-02-27T17:35:39.096Z,5.70
2023-02-27T17:38:07.874Z,4.70
2023-02-27T17:40:40.039Z,5.60
2023-02-27T17:43:08.729Z,5.40
2023-02-27T17:45:38.847Z,5.10
2023-02-27T17:48:07.534Z,4.50
2023-02-27T17:50:36.635Z,4.30
2023-02-27T17:53:05.419Z,6.50
2023-02-27T17:55:33.971Z,7.50
2023-02-27T17:58:03.303Z,7.60
2023-02-27T18:00:31.882Z,9.20
2023-02-27T18:03:00.573Z,9.50
2023-02-27T18:05:29.670Z,7.10
2023-02-27T18:07:58.149Z,4.00
2023-02-27T18:10:26.837Z,3.60
2023-02-27T18:12:55.608Z,4.80
2023-02-27T18:15:24.208Z,9.70
2023-02-27T18:17:52.754Z,9.30
2023-02-27T18:20:21.582Z,9.30
2023-02-27T18:22:50.266Z,8.60
2023-02-27T18:25:20.567Z,7.70
2023-02-27T18:27:49.419Z,6.70
2023-02-27T18:30:20.528Z,4.90
2023-02-27T18:32:49.724Z,4.70
2023-02-27T18:35:18.514Z,4.30
2023-02-27T18:37:46.994Z,3.50
2023-02-27T18:40:16.302Z,4.20
2023-02-27T18:42:48.774Z,4.40
2023-02-27T18:45:18.029Z,3.40
2023-02-27T18:47:47.375Z,4.00
2023-02-27T18:50:17.501Z,3.40
2023-02-27T18:52:47.718Z,2.90
2023-02-27T18:55:21.321Z,3.50
2023-02-27T18:57:54.035Z,3.00
2023-02-27T19:00:24.436Z,2.80
2023-02-27T19:02:52.962Z,2.70
2023-02-27T19:05:21.804Z,2.90
2023-02-27T19:07:50.594Z,3.30
2023-02-27T19:10:19.375Z,2.90
2023-02-27T19:12:51.610Z,3.30
2023-02-27T19:15:20.435Z,3.60
2023-02-27T19:17:49.227Z,4.00
2023-02-27T19:20:18.923Z,3.90
2023-02-27T19:22:47.726Z,3.30
2023-02-27T19:25:16.211Z,3.00
2023-02-27T19:27:47.217Z,3.30
2023-02-27T19:30:16.256Z,3.50
2023-02-27T19:32:44.823Z,3.60
2023-02-27T19:35:15.646Z,3.10
2023-02-27T19:37:48.352Z,3.00
2023-02-27T19:40:16.902Z,3.10
2023-02-27T19:42:45.821Z,3.10
2023-02-27T19:45:14.501Z,3.30
2023-02-27T19:47:44.316Z,3.20
2023-02-27T19:50:16.690Z,2.80
2023-02-27T19:52:45.282Z,4.00
2023-02-27T19:55:14.268Z,4.80
2023-02-27T19:57:43.178Z,5.70
2023-02-27T20:00:13.489Z,4.60
2023-02-27T20:02:42.444Z,3.70
2023-02-27T20:05:12.399Z,3.10
2023-02-27T20:07:42.587Z,3.20
2023-02-27T20:10:12.093Z,3.10
2023-02-27T20:12:41.217Z,3.90
2023-02-27T20:15:11.829Z,2.90
2023-02-27T20:17:42.440Z,3.30
2023-02-27T20:20:12.087Z,2.80
2023-02-27T20:22:43.835Z,2.90
2023-02-27T20:25:12.824Z,3.50
2023-02-27T20:27:41.526Z,3.40
2023-02-27T20:30:11.636Z,3.70
2023-02-27T20:32:40.928Z,3.70
2023-02-27T20:35:10.316Z,3.50
2023-02-27T20:37:39.547Z,6.80
2023-02-27T20:40:10.201Z,4.10
2023-02-27T20:42:39.078Z,4.00
2023-02-27T20:45:08.378Z,4.40
2023-02-27T20:47:37.064Z,4.10
2023-02-27T20:50:06.407Z,4.40
2023-02-27T20:52:35.049Z,4.30
2023-02-27T20:55:04.717Z,4.20
2023-02-27T20:57:33.857Z,4.10
2023-02-27T21:00:03.470Z,4.90
2023-02-27T21:02:32.354Z,4.30
2023-02-27T21:05:01.241Z,4.50
2023-02-27T21:07:29.938Z,4.90
2023-02-27T21:09:58.928Z,4.30
2023-02-27T21:12:27.517Z,4.40
2023-02-27T21:14:56.497Z,4.40
2023-02-27T21:17:26.431Z,4.50
2023-02-27T21:19:55.109Z,4.20
2023-02-27T21:22:23.587Z,5.00
2023-02-27T21:24:53.929Z,4.40
2023-02-27T21:27:23.113Z,3.90
2023-02-27T21:29:51.602Z,4.20
2023-02-27T21:32:20.399Z,3.80
2023-02-27T21:34:49.175Z,4.60
2023-02-27T21:37:18.034Z,4.20
2023-02-27T21:39:52.865Z,3.60
2023-02-27T21:42:22.399Z,4.10
2023-02-27T21:44:51.081Z,4.00
2023-02-27T21:47:21.196Z,4.50
2023-02-27T21:49:51.647Z,4.80
2023-02-27T21:52:20.647Z,4.80
2023-02-27T21:54:49.408Z,4.90
2023-02-27T21:57:18.196Z,5.40
2023-02-27T21:59:47.093Z,5.30
2023-02-27T22:02:15.903Z,5.30
2023-02-27T22:04:44.467Z,5.50
2023-02-27T22:07:13.457Z,5.70
2023-02-27T22:09:42.448Z,6.70
2023-02-27T22:12:10.929Z,7.50
2023-02-27T22:14:39.921Z,6.30
2023-02-27T22:17:08.685Z,6.00
2023-02-27T22:19:37.092Z,6.10
2023-02-27T22:22:05.976Z,6.40
2023-02-27T22:24:34.977Z,9.10
2023-02-27T22:27:04.498Z,6.00
2023-02-27T22:29:33.168Z,6.00
2023-02-27T22:32:02.267Z,6.00
2023-02-27T22:34:31.058Z,6.40
2023-02-27T22:36:59.742Z,6.30
2023-02-27T22:39:28.466Z,6.80
2023-02-27T22:41:57.316Z,6.60
2023-02-27T22:44:26.118Z,6.30
2023-02-27T22:46:56.242Z,6.80
2023-02-27T22:49:24.928Z,12.80
2023-02-27T22:51:54.326Z,6.80
2023-02-27T22:54:23.514Z,6.60
2023-02-27T22:56:53.175Z,7.90
2023-02-27T22:59:22.731Z,7.50
2023-02-27T23:01:51.960Z,7.00
2023-02-27T23:04:22.402Z,6.90
2023-02-27T23:06:52.890Z,6.70
2023-02-27T23:09:25.668Z,6.60
2023-02-27T23:11:55.375Z,7.10
2023-02-27T23:14:24.160Z,6.90
2023-02-27T23:16:52.958Z,7.00
2023-02-27T23:19:22.990Z,7.00
2023-02-27T23:21:51.450Z,7.40
2023-02-27T23:24:20.872Z,7.70
2023-02-27T23:26:51.510Z,7.70
2023-02-27T23:29:20.889Z,6.80
2023-02-27T23:31:49.931Z,6.50
2023-02-27T23:34:18.880Z,6.80
2023-02-27T23:36:47.358Z,8.00
2023-02-27T23:39:16.257Z,7.50
2023-02-27T23:41:45.240Z,7.10
2023-02-27T23:44:13.829Z,6.70
2023-02-27T23:46:42.502Z,7.10
2023-02-27T23:49:11.915Z,7.80
2023-02-27T23:51:40.587Z,6.90
2023-02-27T23:54:09.291Z,7.50
2023-02-27T23:56:37.982Z,7.70
2023-02-27T23:59:07.381Z,7.90
